sensor_id;sensor_type;location;lat;lon;timestamp;temperature;humidity
39493;DHT22;25176;51.060;3.720;2022-11-25T00:00:22;11.70;99.90
39493;DHT22;25176;51.060;3.720;2022-11-25T00:02:48;11.70;99.90
39493;DHT22;25176;51.060;3.720;2022-11-25T00:05:13;11.70;99.90
39493;DHT22;25176;51.060;3.720;2022-11-25T00:07:38;11.70;99.90
39493;DHT22;25176;51.060;3.720;2022-11-25T00:10:04;11.70;99.90
39493;DHT22;25176;51.060;3.720;2022-11-25T00:12:30;11.60;99.90
39493;DHT22;25176;51.060;3.720;2022-11-25T00:14:56;11.60;99.90
39493;DHT22;25176;51.060;3.720;2022-11-25T00:17:21;11.60;99.90
39493;DHT22;25176;51.060;3.720;2022-11-25T00:19:47;11.70;99.90
39493;DHT22;25176;51.060;3.720;2022-11-25T00:22:13;11.60;99.90
39493;DHT22;25176;51.060;3.720;2022-11-25T00:24:39;11.70;99.90
39493;DHT22;25176;51.060;3.720;2022-11-25T00:27:04;11.70;99.90
39493;DHT22;25176;51.060;3.720;2022-11-25T00:29:30;11.70;99.90
39493;DHT22;25176;51.060;3.720;2022-11-25T00:31:55;11.60;99.90
39493;DHT22;25176;51.060;3.720;2022-11-25T00:34:21;11.50;99.90
39493;DHT22;25176;51.060;3.720;2022-11-25T00:36:46;11.40;99.90
39493;DHT22;25176;51.060;3.720;2022-11-25T00:39:12;11.30;99.90
39493;DHT22;25176;51.060;3.720;2022-11-25T00:41:38;11.20;99.90
39493;DHT22;25176;51.060;3.720;2022-11-25T00:44:23;11.20;99.90
39493;DHT22;25176;51.060;3.720;2022-11-25T00:47:01;11.30;99.90
39493;DHT22;25176;51.060;3.720;2022-11-25T00:49:26;11.20;99.90
39493;DHT22;25176;51.060;3.720;2022-11-25T00:51:52;11.20;99.90
39493;DHT22;25176;51.060;3.720;2022-11-25T00:54:18;11.30;99.90
39493;DHT22;25176;51.060;3.720;2022-11-25T00:56:43;11.30;99.90
39493;DHT22;25176;51.060;3.720;2022-11-25T00:59:09;11.20;99.90
39493;DHT22;25176;51.060;3.720;2022-11-25T01:01:35;11.20;99.90
39493;DHT22;25176;51.060;3.720;2022-11-25T01:04:00;11.20;99.90
39493;DHT22;25176;51.060;3.720;2022-11-25T01:06:26;11.10;99.90
39493;DHT22;25176;51.060;3.720;2022-11-25T01:08:52;11.10;99.90
39493;DHT22;25176;51.060;3.720;2022-11-25T01:11:18;11.10;99.90
39493;DHT22;25176;51.060;3.720;2022-11-25T01:13:44;11.20;99.90
39493;DHT22;25176;51.060;3.720;2022-11-25T01:16:10;11.30;99.90
39493;DHT22;25176;51.060;3.720;2022-11-25T01:18:36;11.40;99.90
39493;DHT22;25176;51.060;3.720;2022-11-25T01:21:05;11.40;99.90
39493;DHT22;25176;51.060;3.720;2022-11-25T01:23:31;11.20;99.90
39493;DHT22;25176;51.060;3.720;2022-11-25T01:25:59;11.20;99.90
39493;DHT22;25176;51.060;3.720;2022-11-25T01:28:25;11.10;99.90
39493;DHT22;25176;51.060;3.720;2022-11-25T01:30:58;11.20;99.90
39493;DHT22;25176;51.060;3.720;2022-11-25T01:33:23;11.20;99.90
39493;DHT22;25176;51.060;3.720;2022-11-25T01:35:49;11.10;99.90
39493;DHT22;25176;51.060;3.720;2022-11-25T01:38:15;11.00;99.90
39493;DHT22;25176;51.060;3.720;2022-11-25T01:40:40;11.10;99.90
39493;DHT22;25176;51.060;3.720;2022-11-25T01:43:09;11.10;99.90
39493;DHT22;25176;51.060;3.720;2022-11-25T01:45:37;11.20;99.90
39493;DHT22;25176;51.060;3.720;2022-11-25T01:48:05;11.10;99.90
39493;DHT22;25176;51.060;3.720;2022-11-25T01:50:34;11.20;99.90
39493;DHT22;25176;51.060;3.720;2022-11-25T01:53:00;11.20;99.90
39493;DHT22;25176;51.060;3.720;2022-11-25T01:55:28;11.20;99.90
39493;DHT22;25176;51.060;3.720;2022-11-25T01:57:57;11.10;99.90
39493;DHT22;25176;51.060;3.720;2022-11-25T02:00:23;11.10;99.90
39493;DHT22;25176;51.060;3.720;2022-11-25T02:02:50;11.10;99.90
39493;DHT22;25176;51.060;3.720;2022-11-25T02:05:19;11.00;99.90
39493;DHT22;25176;51.060;3.720;2022-11-25T02:07:46;10.90;99.90
39493;DHT22;25176;51.060;3.720;2022-11-25T02:10:17;11.00;99.90
39493;DHT22;25176;51.060;3.720;2022-11-25T02:12:44;10.90;99.90
39493;DHT22;25176;51.060;3.720;2022-11-25T02:15:10;10.90;99.90
39493;DHT22;25176;51.060;3.720;2022-11-25T02:17:36;10.80;99.90
39493;DHT22;25176;51.060;3.720;2022-11-25T02:20:06;10.80;99.90
39493;DHT22;25176;51.060;3.720;2022-11-25T02:24:59;10.80;99.90
39493;DHT22;25176;51.060;3.720;2022-11-25T02:27:27;10.70;99.90
39493;DHT22;25176;51.060;3.720;2022-11-25T02:29:53;10.70;99.90
39493;DHT22;25176;51.060;3.720;2022-11-25T02:32:21;10.70;99.90
39493;DHT22;25176;51.060;3.720;2022-11-25T02:34:47;10.70;99.90
39493;DHT22;25176;51.060;3.720;2022-11-25T02:37:13;10.70;99.90
39493;DHT22;25176;51.060;3.720;2022-11-25T02:39:40;10.80;99.90
39493;DHT22;25176;51.060;3.720;2022-11-25T02:42:05;10.80;99.90
39493;DHT22;25176;51.060;3.720;2022-11-25T02:44:31;10.70;99.90
39493;DHT22;25176;51.060;3.720;2022-11-25T02:46:56;10.60;99.90
39493;DHT22;25176;51.060;3.720;2022-11-25T02:49:22;10.80;99.90
39493;DHT22;25176;51.060;3.720;2022-11-25T02:51:47;10.70;99.90
39493;DHT22;25176;51.060;3.720;2022-11-25T02:54:13;10.70;99.90
39493;DHT22;25176;51.060;3.720;2022-11-25T02:56:39;10.70;99.90
39493;DHT22;25176;51.060;3.720;2022-11-25T02:59:05;10.60;99.90
39493;DHT22;25176;51.060;3.720;2022-11-25T03:01:31;10.50;99.90
39493;DHT22;25176;51.060;3.720;2022-11-25T03:03:57;10.50;99.90
39493;DHT22;25176;51.060;3.720;2022-11-25T03:06:22;10.50;99.90
39493;DHT22;25176;51.060;3.720;2022-11-25T03:08:48;10.50;99.90
39493;DHT22;25176;51.060;3.720;2022-11-25T03:11:13;10.40;99.90
39493;DHT22;25176;51.060;3.720;2022-11-25T03:13:39;10.30;99.90
39493;DHT22;25176;51.060;3.720;2022-11-25T03:16:05;10.30;99.90
39493;DHT22;25176;51.060;3.720;2022-11-25T03:18:31;10.30;99.90
39493;DHT22;25176;51.060;3.720;2022-11-25T03:20:56;10.30;99.90
39493;DHT22;25176;51.060;3.720;2022-11-25T03:23:22;10.30;99.90
39493;DHT22;25176;51.060;3.720;2022-11-25T03:25:48;10.40;99.90
39493;DHT22;25176;51.060;3.720;2022-11-25T03:28:13;10.30;99.90
39493;DHT22;25176;51.060;3.720;2022-11-25T03:30:39;10.40;99.90
39493;DHT22;25176;51.060;3.720;2022-11-25T03:33:04;10.50;99.90
39493;DHT22;25176;51.060;3.720;2022-11-25T03:35:30;10.50;99.90
39493;DHT22;25176;51.060;3.720;2022-11-25T03:37:55;10.60;99.90
39493;DHT22;25176;51.060;3.720;2022-11-25T03:40:21;10.50;99.90
39493;DHT22;25176;51.060;3.720;2022-11-25T03:42:46;10.50;99.90
39493;DHT22;25176;51.060;3.720;2022-11-25T03:45:12;10.50;99.90
39493;DHT22;25176;51.060;3.720;2022-11-25T03:47:38;10.70;99.90
39493;DHT22;25176;51.060;3.720;2022-11-25T03:50:04;10.60;99.90
39493;DHT22;25176;51.060;3.720;2022-11-25T03:52:30;10.70;99.90
39493;DHT22;25176;51.060;3.720;2022-11-25T03:54:56;10.70;99.90
39493;DHT22;25176;51.060;3.720;2022-11-25T03:57:21;10.80;99.90
39493;DHT22;25176;51.060;3.720;2022-11-25T03:59:47;10.80;99.90
39493;DHT22;25176;51.060;3.720;2022-11-25T04:02:12;10.80;99.90
39493;DHT22;25176;51.060;3.720;2022-11-25T04:04:38;10.80;99.90
39493;DHT22;25176;51.060;3.720;2022-11-25T04:07:04;10.80;99.90
39493;DHT22;25176;51.060;3.720;2022-11-25T04:09:29;10.80;99.90
39493;DHT22;25176;51.060;3.720;2022-11-25T04:11:55;10.80;99.90
39493;DHT22;25176;51.060;3.720;2022-11-25T04:14:38;10.80;99.90
39493;DHT22;25176;51.060;3.720;2022-11-25T04:17:04;10.70;99.90
39493;DHT22;25176;51.060;3.720;2022-11-25T04:19:29;10.80;99.90
39493;DHT22;25176;51.060;3.720;2022-11-25T04:21:55;10.90;99.90
39493;DHT22;25176;51.060;3.720;2022-11-25T04:24:23;10.90;99.90
39493;DHT22;25176;51.060;3.720;2022-11-25T04:26:49;10.80;99.90
39493;DHT22;25176;51.060;3.720;2022-11-25T04:29:15;10.90;99.90
39493;DHT22;25176;51.060;3.720;2022-11-25T04:31:40;10.90;99.90
39493;DHT22;25176;51.060;3.720;2022-11-25T04:34:07;10.90;99.90
39493;DHT22;25176;51.060;3.720;2022-11-25T04:36:32;10.80;99.90
39493;DHT22;25176;51.060;3.720;2022-11-25T04:38:58;10.80;99.90
39493;DHT22;25176;51.060;3.720;2022-11-25T04:41:23;10.70;99.90
39493;DHT22;25176;51.060;3.720;2022-11-25T04:43:48;10.70;99.90
39493;DHT22;25176;51.060;3.720;2022-11-25T04:46:18;10.70;99.90
39493;DHT22;25176;51.060;3.720;2022-11-25T04:48:44;10.60;99.90
39493;DHT22;25176;51.060;3.720;2022-11-25T04:51:09;10.70;99.90
39493;DHT22;25176;51.060;3.720;2022-11-25T04:53:35;10.60;99.90
39493;DHT22;25176;51.060;3.720;2022-11-25T04:56:00;10.60;99.90
39493;DHT22;25176;51.060;3.720;2022-11-25T04:58:26;10.50;99.90
39493;DHT22;25176;51.060;3.720;2022-11-25T05:01:10;10.40;99.90
39493;DHT22;25176;51.060;3.720;2022-11-25T05:03:35;10.30;99.90
39493;DHT22;25176;51.060;3.720;2022-11-25T05:06:04;10.30;99.90
39493;DHT22;25176;51.060;3.720;2022-11-25T05:08:30;10.30;99.90
39493;DHT22;25176;51.060;3.720;2022-11-25T05:10:57;10.30;99.90
39493;DHT22;25176;51.060;3.720;2022-11-25T05:13:23;10.30;99.90
39493;DHT22;25176;51.060;3.720;2022-11-25T05:15:48;10.30;99.90
39493;DHT22;25176;51.060;3.720;2022-11-25T05:18:14;10.30;99.90
39493;DHT22;25176;51.060;3.720;2022-11-25T05:20:39;10.30;99.90
39493;DHT22;25176;51.060;3.720;2022-11-25T05:23:05;10.20;99.90
39493;DHT22;25176;51.060;3.720;2022-11-25T05:25:30;10.20;99.90
39493;DHT22;25176;51.060;3.720;2022-11-25T05:27:56;10.20;99.90
39493;DHT22;25176;51.060;3.720;2022-11-25T05:30:21;10.20;99.90
39493;DHT22;25176;51.060;3.720;2022-11-25T05:32:46;10.10;99.90
39493;DHT22;25176;51.060;3.720;2022-11-25T05:35:12;10.20;99.90
39493;DHT22;25176;51.060;3.720;2022-11-25T05:37:37;10.20;99.90
39493;DHT22;25176;51.060;3.720;2022-11-25T05:40:03;10.10;99.90
39493;DHT22;25176;51.060;3.720;2022-11-25T05:42:29;10.10;99.90
39493;DHT22;25176;51.060;3.720;2022-11-25T05:44:54;10.10;99.90
39493;DHT22;25176;51.060;3.720;2022-11-25T05:47:19;10.10;99.90
39493;DHT22;25176;51.060;3.720;2022-11-25T05:49:45;10.00;99.90
39493;DHT22;25176;51.060;3.720;2022-11-25T05:52:10;10.00;99.90
39493;DHT22;25176;51.060;3.720;2022-11-25T05:54:36;10.00;99.90
39493;DHT22;25176;51.060;3.720;2022-11-25T05:57:01;10.00;99.90
39493;DHT22;25176;51.060;3.720;2022-11-25T05:59:27;10.00;99.90
39493;DHT22;25176;51.060;3.720;2022-11-25T06:01:52;10.00;99.90
39493;DHT22;25176;51.060;3.720;2022-11-25T06:04:18;10.00;99.90
39493;DHT22;25176;51.060;3.720;2022-11-25T06:06:43;9.90;99.90
39493;DHT22;25176;51.060;3.720;2022-11-25T06:09:09;10.00;99.90
39493;DHT22;25176;51.060;3.720;2022-11-25T06:11:34;10.00;99.90
39493;DHT22;25176;51.060;3.720;2022-11-25T06:14:00;10.00;99.90
39493;DHT22;25176;51.060;3.720;2022-11-25T06:16:25;9.90;99.90
39493;DHT22;25176;51.060;3.720;2022-11-25T06:18:52;9.90;99.90
39493;DHT22;25176;51.060;3.720;2022-11-25T06:21:18;9.90;99.90
39493;DHT22;25176;51.060;3.720;2022-11-25T06:23:43;9.90;99.90
39493;DHT22;25176;51.060;3.720;2022-11-25T06:28:38;9.90;99.90
39493;DHT22;25176;51.060;3.720;2022-11-25T06:31:05;9.90;99.90
39493;DHT22;25176;51.060;3.720;2022-11-25T06:33:30;9.80;99.90
39493;DHT22;25176;51.060;3.720;2022-11-25T06:35:56;9.90;99.90
39493;DHT22;25176;51.060;3.720;2022-11-25T06:38:21;9.90;99.90
39493;DHT22;25176;51.060;3.720;2022-11-25T06:40:47;9.80;99.90
39493;DHT22;25176;51.060;3.720;2022-11-25T06:43:12;9.80;99.90
39493;DHT22;25176;51.060;3.720;2022-11-25T06:45:38;9.80;99.90
39493;DHT22;25176;51.060;3.720;2022-11-25T06:48:03;9.70;99.90
39493;DHT22;25176;51.060;3.720;2022-11-25T06:50:29;9.80;99.90
39493;DHT22;25176;51.060;3.720;2022-11-25T06:52:59;9.80;99.90
39493;DHT22;25176;51.060;3.720;2022-11-25T06:55:24;9.90;99.90
39493;DHT22;25176;51.060;3.720;2022-11-25T06:57:50;9.90;99.90
39493;DHT22;25176;51.060;3.720;2022-11-25T07:00:15;9.90;99.90
39493;DHT22;25176;51.060;3.720;2022-11-25T07:02:41;10.00;99.90
39493;DHT22;25176;51.060;3.720;2022-11-25T07:05:06;10.00;99.90
39493;DHT22;25176;51.060;3.720;2022-11-25T07:07:32;10.00;99.90
39493;DHT22;25176;51.060;3.720;2022-11-25T07:09:57;9.90;99.90
39493;DHT22;25176;51.060;3.720;2022-11-25T07:12:23;9.90;99.90
39493;DHT22;25176;51.060;3.720;2022-11-25T07:14:49;10.00;99.90
39493;DHT22;25176;51.060;3.720;2022-11-25T07:17:15;10.00;99.90
39493;DHT22;25176;51.060;3.720;2022-11-25T07:19:40;10.00;99.90
39493;DHT22;25176;51.060;3.720;2022-11-25T07:22:06;10.10;99.90
39493;DHT22;25176;51.060;3.720;2022-11-25T07:24:31;10.00;99.90
39493;DHT22;25176;51.060;3.720;2022-11-25T07:26:58;10.10;99.90
39493;DHT22;25176;51.060;3.720;2022-11-25T07:29:23;10.00;99.90
39493;DHT22;25176;51.060;3.720;2022-11-25T07:31:49;10.10;99.90
39493;DHT22;25176;51.060;3.720;2022-11-25T07:34:18;10.00;99.90
39493;DHT22;25176;51.060;3.720;2022-11-25T07:36:48;10.10;99.90
39493;DHT22;25176;51.060;3.720;2022-11-25T07:39:15;10.30;99.90
39493;DHT22;25176;51.060;3.720;2022-11-25T07:41:40;10.10;99.90
39493;DHT22;25176;51.060;3.720;2022-11-25T07:44:06;10.10;99.90
39493;DHT22;25176;51.060;3.720;2022-11-25T07:49:00;10.10;99.90
39493;DHT22;25176;51.060;3.720;2022-11-25T07:51:28;10.10;99.90
39493;DHT22;25176;51.060;3.720;2022-11-25T07:53:54;10.20;99.90
39493;DHT22;25176;51.060;3.720;2022-11-25T07:56:20;10.20;99.90
39493;DHT22;25176;51.060;3.720;2022-11-25T07:58:48;10.10;99.90
39493;DHT22;25176;51.060;3.720;2022-11-25T08:01:23;10.20;99.90
39493;DHT22;25176;51.060;3.720;2022-11-25T08:03:49;10.30;99.90
39493;DHT22;25176;51.060;3.720;2022-11-25T08:06:16;10.30;99.90
39493;DHT22;25176;51.060;3.720;2022-11-25T08:08:47;10.50;99.90
39493;DHT22;25176;51.060;3.720;2022-11-25T08:11:25;10.60;99.90
39493;DHT22;25176;51.060;3.720;2022-11-25T08:13:52;10.70;99.90
39493;DHT22;25176;51.060;3.720;2022-11-25T08:16:19;10.80;99.90
39493;DHT22;25176;51.060;3.720;2022-11-25T08:18:48;10.90;99.90
39493;DHT22;25176;51.060;3.720;2022-11-25T08:21:19;10.90;99.90
39493;DHT22;25176;51.060;3.720;2022-11-25T08:23:45;10.80;99.90
39493;DHT22;25176;51.060;3.720;2022-11-25T08:28:43;10.60;99.90
39493;DHT22;25176;51.060;3.720;2022-11-25T08:31:10;10.70;99.90
39493;DHT22;25176;51.060;3.720;2022-11-25T08:33:36;10.70;99.90
39493;DHT22;25176;51.060;3.720;2022-11-25T08:36:01;10.60;99.90
39493;DHT22;25176;51.060;3.720;2022-11-25T08:38:28;10.60;99.90
39493;DHT22;25176;51.060;3.720;2022-11-25T08:40:54;10.60;99.90
39493;DHT22;25176;51.060;3.720;2022-11-25T08:43:21;10.60;99.90
39493;DHT22;25176;51.060;3.720;2022-11-25T08:45:48;10.60;99.90
39493;DHT22;25176;51.060;3.720;2022-11-25T08:48:14;10.70;99.90
39493;DHT22;25176;51.060;3.720;2022-11-25T08:50:44;10.80;99.90
39493;DHT22;25176;51.060;3.720;2022-11-25T08:53:10;11.10;99.90
39493;DHT22;25176;51.060;3.720;2022-11-25T08:55:35;11.20;99.90
39493;DHT22;25176;51.060;3.720;2022-11-25T08:58:06;11.30;99.90
39493;DHT22;25176;51.060;3.720;2022-11-25T09:00:36;11.30;99.90
39493;DHT22;25176;51.060;3.720;2022-11-25T09:03:02;11.50;99.90
39493;DHT22;25176;51.060;3.720;2022-11-25T09:05:28;11.50;99.90
39493;DHT22;25176;51.060;3.720;2022-11-25T09:08:02;11.30;99.90
39493;DHT22;25176;51.060;3.720;2022-11-25T09:10:28;11.30;99.90
39493;DHT22;25176;51.060;3.720;2022-11-25T09:12:54;11.30;99.90
39493;DHT22;25176;51.060;3.720;2022-11-25T09:15:19;11.40;99.90
39493;DHT22;25176;51.060;3.720;2022-11-25T09:17:45;11.30;99.90
39493;DHT22;25176;51.060;3.720;2022-11-25T09:20:11;11.20;99.90
39493;DHT22;25176;51.060;3.720;2022-11-25T09:22:36;11.30;99.90
39493;DHT22;25176;51.060;3.720;2022-11-25T09:25:02;11.40;99.90
39493;DHT22;25176;51.060;3.720;2022-11-25T09:27:30;11.40;99.90
39493;DHT22;25176;51.060;3.720;2022-11-25T09:30:00;11.40;99.90
39493;DHT22;25176;51.060;3.720;2022-11-25T09:32:26;11.90;99.90
39493;DHT22;25176;51.060;3.720;2022-11-25T09:34:53;13.20;99.90
39493;DHT22;25176;51.060;3.720;2022-11-25T09:37:19;14.50;99.90
39493;DHT22;25176;51.060;3.720;2022-11-25T09:39:45;15.60;99.90
39493;DHT22;25176;51.060;3.720;2022-11-25T09:42:18;16.70;99.90
39493;DHT22;25176;51.060;3.720;2022-11-25T09:50:47;17.10;97.60
39493;DHT22;25176;51.060;3.720;2022-11-25T09:53:31;16.40;97.90
39493;DHT22;25176;51.060;3.720;2022-11-25T09:56:02;15.70;99.10
39493;DHT22;25176;51.060;3.720;2022-11-25T09:58:36;14.40;99.90
39493;DHT22;25176;51.060;3.720;2022-11-25T10:01:11;13.90;99.90
39493;DHT22;25176;51.060;3.720;2022-11-25T10:03:44;13.40;99.90
39493;DHT22;25176;51.060;3.720;2022-11-25T10:06:21;13.30;99.90
39493;DHT22;25176;51.060;3.720;2022-11-25T10:08:55;13.20;99.90
39493;DHT22;25176;51.060;3.720;2022-11-25T10:16:46;12.70;99.90
39493;DHT22;25176;51.060;3.720;2022-11-25T10:22:00;12.70;99.90
39493;DHT22;25176;51.060;3.720;2022-11-25T10:24:36;12.60;99.90
39493;DHT22;25176;51.060;3.720;2022-11-25T10:27:04;12.50;99.90
39493;DHT22;25176;51.060;3.720;2022-11-25T10:29:36;12.50;99.90
39493;DHT22;25176;51.060;3.720;2022-11-25T10:34:41;12.40;99.90
39493;DHT22;25176;51.060;3.720;2022-11-25T10:37:10;12.40;99.90
39493;DHT22;25176;51.060;3.720;2022-11-25T10:39:38;12.40;99.90
39493;DHT22;25176;51.060;3.720;2022-11-25T10:42:05;12.30;99.90
39493;DHT22;25176;51.060;3.720;2022-11-25T10:44:38;12.30;99.90
39493;DHT22;25176;51.060;3.720;2022-11-25T10:47:23;12.40;99.90
39493;DHT22;25176;51.060;3.720;2022-11-25T10:52:45;12.40;99.90
39493;DHT22;25176;51.060;3.720;2022-11-25T10:55:14;12.20;99.90
39493;DHT22;25176;51.060;3.720;2022-11-25T10:57:40;12.40;99.90
39493;DHT22;25176;51.060;3.720;2022-11-25T11:00:23;12.40;99.90
39493;DHT22;25176;51.060;3.720;2022-11-25T11:02:49;12.40;99.90
39493;DHT22;25176;51.060;3.720;2022-11-25T11:05:17;12.40;99.90
39493;DHT22;25176;51.060;3.720;2022-11-25T11:07:43;12.50;99.90
39493;DHT22;25176;51.060;3.720;2022-11-25T11:10:25;12.40;99.90
39493;DHT22;25176;51.060;3.720;2022-11-25T11:13:01;12.50;99.90
39493;DHT22;25176;51.060;3.720;2022-11-25T11:17:52;12.60;99.90
39493;DHT22;25176;51.060;3.720;2022-11-25T11:22:45;12.70;99.90
39493;DHT22;25176;51.060;3.720;2022-11-25T11:27:40;12.80;99.90
39493;DHT22;25176;51.060;3.720;2022-11-25T11:30:12;12.90;99.90
39493;DHT22;25176;51.060;3.720;2022-11-25T11:32:38;13.10;99.90
39493;DHT22;25176;51.060;3.720;2022-11-25T11:35:07;13.20;99.90
39493;DHT22;25176;51.060;3.720;2022-11-25T11:37:46;13.10;99.90
39493;DHT22;25176;51.060;3.720;2022-11-25T11:40:24;13.20;99.90
39493;DHT22;25176;51.060;3.720;2022-11-25T11:50:30;12.90;99.90
39493;DHT22;25176;51.060;3.720;2022-11-25T11:58:12;13.30;99.90
39493;DHT22;25176;51.060;3.720;2022-11-25T12:00:45;13.30;99.90
39493;DHT22;25176;51.060;3.720;2022-11-25T12:03:15;13.40;99.90
39493;DHT22;25176;51.060;3.720;2022-11-25T12:05:42;13.50;99.90
39493;DHT22;25176;51.060;3.720;2022-11-25T12:08:19;13.60;99.90
39493;DHT22;25176;51.060;3.720;2022-11-25T12:10:55;13.80;99.90
39493;DHT22;25176;51.060;3.720;2022-11-25T12:16:03;13.80;99.90
39493;DHT22;25176;51.060;3.720;2022-11-25T12:18:43;13.80;99.90
39493;DHT22;25176;51.060;3.720;2022-11-25T12:27:02;13.80;99.90
39493;DHT22;25176;51.060;3.720;2022-11-25T12:29:09;13.70;99.90
39493;DHT22;25176;51.060;3.720;2022-11-25T12:31:42;13.70;99.90
39493;DHT22;25176;51.060;3.720;2022-11-25T12:36:56;13.70;99.90
39493;DHT22;25176;51.060;3.720;2022-11-25T12:39:28;13.60;99.90
39493;DHT22;25176;51.060;3.720;2022-11-25T12:42:01;13.50;99.90
39493;DHT22;25176;51.060;3.720;2022-11-25T12:44:28;13.50;99.90
39493;DHT22;25176;51.060;3.720;2022-11-25T12:46:55;13.70;99.90
39493;DHT22;25176;51.060;3.720;2022-11-25T12:52:06;13.80;99.90
39493;DHT22;25176;51.060;3.720;2022-11-25T12:57:25;13.50;99.90
39493;DHT22;25176;51.060;3.720;2022-11-25T13:00:00;13.30;99.90
39493;DHT22;25176;51.060;3.720;2022-11-25T13:10:27;13.20;99.90
39493;DHT22;25176;51.060;3.720;2022-11-25T13:15:26;13.20;99.90
39493;DHT22;25176;51.060;3.720;2022-11-25T13:17:54;13.20;99.90
39493;DHT22;25176;51.060;3.720;2022-11-25T13:23:04;13.10;99.90
39493;DHT22;25176;51.060;3.720;2022-11-25T13:25:35;13.00;99.90
39493;DHT22;25176;51.060;3.720;2022-11-25T13:28:02;13.00;99.90
39493;DHT22;25176;51.060;3.720;2022-11-25T13:32:57;13.00;99.90
39493;DHT22;25176;51.060;3.720;2022-11-25T13:37:53;13.10;99.90
39493;DHT22;25176;51.060;3.720;2022-11-25T13:42:47;13.40;99.90
39493;DHT22;25176;51.060;3.720;2022-11-25T13:47:52;13.50;99.90
39493;DHT22;25176;51.060;3.720;2022-11-25T13:50:22;13.60;99.90
39493;DHT22;25176;51.060;3.720;2022-11-25T13:58:02;13.50;99.90
39493;DHT22;25176;51.060;3.720;2022-11-25T14:13:54;13.30;99.90
39493;DHT22;25176;51.060;3.720;2022-11-25T14:16:41;13.30;99.90
39493;DHT22;25176;51.060;3.720;2022-11-25T14:21:51;13.30;99.90
39493;DHT22;25176;51.060;3.720;2022-11-25T14:24:27;13.30;99.90
39493;DHT22;25176;51.060;3.720;2022-11-25T14:26:55;13.20;99.90
39493;DHT22;25176;51.060;3.720;2022-11-25T14:29:26;13.00;99.90
39493;DHT22;25176;51.060;3.720;2022-11-25T14:32:00;13.00;99.90
39493;DHT22;25176;51.060;3.720;2022-11-25T14:34:29;13.10;99.90
39493;DHT22;25176;51.060;3.720;2022-11-25T14:37:00;13.10;99.90
39493;DHT22;25176;51.060;3.720;2022-11-25T14:39:32;13.20;99.90
39493;DHT22;25176;51.060;3.720;2022-11-25T14:42:09;13.00;99.90
39493;DHT22;25176;51.060;3.720;2022-11-25T14:44:48;13.00;99.90
39493;DHT22;25176;51.060;3.720;2022-11-25T14:47:14;13.10;99.90
39493;DHT22;25176;51.060;3.720;2022-11-25T14:49:49;12.90;99.90
39493;DHT22;25176;51.060;3.720;2022-11-25T14:52:33;12.80;99.90
39493;DHT22;25176;51.060;3.720;2022-11-25T14:55:00;12.90;99.90
39493;DHT22;25176;51.060;3.720;2022-11-25T14:57:27;12.80;99.90
39493;DHT22;25176;51.060;3.720;2022-11-25T14:59:55;12.70;99.90
39493;DHT22;25176;51.060;3.720;2022-11-25T15:02:30;12.60;99.90
39493;DHT22;25176;51.060;3.720;2022-11-25T15:05:07;12.60;99.90
39493;DHT22;25176;51.060;3.720;2022-11-25T15:07:40;12.70;99.90
39493;DHT22;25176;51.060;3.720;2022-11-25T15:10:05;12.70;99.90
39493;DHT22;25176;51.060;3.720;2022-11-25T15:12:31;12.60;99.90
39493;DHT22;25176;51.060;3.720;2022-11-25T15:14:57;12.60;99.90
39493;DHT22;25176;51.060;3.720;2022-11-25T15:17:24;12.60;99.90
39493;DHT22;25176;51.060;3.720;2022-11-25T15:19:50;12.50;99.90
39493;DHT22;25176;51.060;3.720;2022-11-25T15:22:17;12.50;99.90
39493;DHT22;25176;51.060;3.720;2022-11-25T15:24:44;12.50;99.90
39493;DHT22;25176;51.060;3.720;2022-11-25T15:27:17;12.40;99.90
39493;DHT22;25176;51.060;3.720;2022-11-25T15:29:43;12.50;99.90
39493;DHT22;25176;51.060;3.720;2022-11-25T15:32:17;12.40;99.90
39493;DHT22;25176;51.060;3.720;2022-11-25T15:34:43;12.30;99.90
39493;DHT22;25176;51.060;3.720;2022-11-25T15:37:10;12.30;99.90
39493;DHT22;25176;51.060;3.720;2022-11-25T15:39:36;12.30;99.90
39493;DHT22;25176;51.060;3.720;2022-11-25T15:42:18;12.20;99.90
39493;DHT22;25176;51.060;3.720;2022-11-25T15:50:21;12.10;99.90
39493;DHT22;25176;51.060;3.720;2022-11-25T15:52:47;12.10;99.90
39493;DHT22;25176;51.060;3.720;2022-11-25T15:55:30;12.00;99.90
39493;DHT22;25176;51.060;3.720;2022-11-25T15:57:57;12.10;99.90
39493;DHT22;25176;51.060;3.720;2022-11-25T16:00:24;12.10;99.90
39493;DHT22;25176;51.060;3.720;2022-11-25T16:02:50;12.10;99.90
39493;DHT22;25176;51.060;3.720;2022-11-25T16:05:21;12.10;99.90
39493;DHT22;25176;51.060;3.720;2022-11-25T16:10:20;12.00;99.90
39493;DHT22;25176;51.060;3.720;2022-11-25T16:16:15;11.90;99.90
39493;DHT22;25176;51.060;3.720;2022-11-25T16:18:33;12.00;99.90
39493;DHT22;25176;51.060;3.720;2022-11-25T16:21:01;11.90;99.90
39493;DHT22;25176;51.060;3.720;2022-11-25T16:23:27;11.90;99.90
39493;DHT22;25176;51.060;3.720;2022-11-25T16:26:03;11.90;99.90
39493;DHT22;25176;51.060;3.720;2022-11-25T16:28:30;11.90;99.90
39493;DHT22;25176;51.060;3.720;2022-11-25T16:30:55;11.90;99.90
39493;DHT22;25176;51.060;3.720;2022-11-25T16:33:23;11.70;99.90
39493;DHT22;25176;51.060;3.720;2022-11-25T16:35:49;11.80;99.90
39493;DHT22;25176;51.060;3.720;2022-11-25T16:38:15;11.70;99.90
39493;DHT22;25176;51.060;3.720;2022-11-25T16:40:40;11.70;99.90
39493;DHT22;25176;51.060;3.720;2022-11-25T16:43:06;11.60;99.90
39493;DHT22;25176;51.060;3.720;2022-11-25T16:45:38;11.50;99.90
39493;DHT22;25176;51.060;3.720;2022-11-25T16:48:14;11.60;99.90
39493;DHT22;25176;51.060;3.720;2022-11-25T16:50:41;11.50;99.90
39493;DHT22;25176;51.060;3.720;2022-11-25T16:53:06;11.40;99.90
39493;DHT22;25176;51.060;3.720;2022-11-25T16:55:32;11.40;99.90
39493;DHT22;25176;51.060;3.720;2022-11-25T16:57:57;11.40;99.90
39493;DHT22;25176;51.060;3.720;2022-11-25T17:00:23;11.40;99.90
39493;DHT22;25176;51.060;3.720;2022-11-25T17:02:48;11.40;99.90
39493;DHT22;25176;51.060;3.720;2022-11-25T17:07:39;11.40;99.90
39493;DHT22;25176;51.060;3.720;2022-11-25T17:10:05;11.40;99.90
39493;DHT22;25176;51.060;3.720;2022-11-25T17:12:32;11.40;99.90
39493;DHT22;25176;51.060;3.720;2022-11-25T17:14:58;11.40;99.90
39493;DHT22;25176;51.060;3.720;2022-11-25T17:17:24;11.40;99.90
39493;DHT22;25176;51.060;3.720;2022-11-25T17:19:50;11.40;99.90
39493;DHT22;25176;51.060;3.720;2022-11-25T17:22:17;11.30;99.90
39493;DHT22;25176;51.060;3.720;2022-11-25T17:24:42;11.40;99.90
39493;DHT22;25176;51.060;3.720;2022-11-25T17:27:08;11.30;99.90
39493;DHT22;25176;51.060;3.720;2022-11-25T17:29:37;11.40;99.90
39493;DHT22;25176;51.060;3.720;2022-11-25T17:32:04;11.30;99.90
39493;DHT22;25176;51.060;3.720;2022-11-25T17:34:29;11.30;99.90
39493;DHT22;25176;51.060;3.720;2022-11-25T17:36:55;11.30;99.90
39493;DHT22;25176;51.060;3.720;2022-11-25T17:39:20;11.20;99.90